Relevés horaires Bierset (Belgique)


Relevés horaires à Bierset - Dimanche 10 Sept. 2023
Heure UTC1 Température [°C] Vent [km/h] Hum. [%] Pres.4 [hPa] Visi. [Km] Nébu. [octa] Préc.5 [mm] Cond.
2m. Res. Ros. Dir.2 Vit. Moy. Raf.3
23:00 22.9 22.9 16.8 SE 5.6 7.4 18.5 69 1015.5(-0.5/3h) 30 1/8 -- --
22:00 23.6 23.6 17.2 SE 5.6 7.4 18.5 67 1015.6(-0.3/3h) 30 1/8 -- --
21:00 24.9 24.9 16.5 SSO 3.7 5.6 14.8 60 1015.7(0.2/3h) 30 3/8 -- --
20:00 26.0 26.0 17.2 S 5.6 5.6 14.8 58 1015.7(-0.1/3h) 30 3/8 -- --
19:00 27.1 27.1 16.8 E 1.9 3.7 11.1 53 1015.7(-0.1/3h) 30 3/8 -- --
18:00 27.7 27.7 17.0 E 5.6 7.4 20.4 52 1015.3(-0.7/3h) 30 3/8 0/12h
--
17:00 28.7 28.7 17.3 E 5.6 5.6 16.7 50 1015.4(-0.9/3h) 30 3/8 -- --
16:00 30.0 30.0 16.5 SSE 3.7 7.4 11.1 44 1015.6(-1.0/3h) 30 3/8 -- --
15:00 29.4 29.4 16.4 ENE 7.4 7.4 13.0 46 1015.9(-1.2/3h) 30 3/8 -- --
14:00 30.0 30.0 18.3 NNE 3.7 3.7 9.3 50 1016.3(-0.9/3h) 30 3/8 -- --
13:00 30.4 30.4 17.2 NNO 3.7 5.6 13.0 45 1016.6(-1.0/3h) 30 3/8 -- --
12:00 29.8 29.8 16.5 SSE 3.7 7.4 16.7 45 1017.1(-0.8/3h) 30 3/8 0/6h
--
11:00 29.4 29.4 17.7 S 3.7 5.6 7.4 49 1017.3(-0.5/3h) 30 1/8 -- --
10:00 27.9 27.9 18.9 S 3.7 5.6 13.0 58 1017.7(0.0/3h) 30 1/8 -- --
09:00 25.5 25.5 17.7 SSE 3.7 7.4 16.7 62 1018.1(0.8/3h) 30 1/8 -- --
08:00 23.2 23.2 17.4 SSE 3.7 5.6 14.8 70 1018.2(1.0/3h) 30 1/8 -- --
07:00 21.6 21.6 16.5 SSE 3.7 7.4 16.7 73 1018.2(0.7/3h) 30 1/8 -- --
06:00 20.4 20.4 16.3 SSE 7.4 9.3 18.5 77 1017.7(-0.1/3h) 30 1/8 0/12h
--
05:00 20.6 20.6 16.0 SSE 9.3 9.3 16.7 75 1017.5(-0.1/3h) 30 0/8 -- --
04:00 21.3 21.3 16.0 SSE 7.4 7.4 16.7 72 1017.4(0.1/3h) 30 0/8 -- --
03:00 20.9 20.9 16.8 SSE 7.4 9.3 14.8 77 1017.6(0.0/3h) 30 0/8 -- --
02:00 22.2 22.2 16.5 SSE 7.4 7.4 14.8 70 1017.4(-0.2/3h) 30 0/8 -- --
01:00 22.0 22.0 17.2 SSE 7.4 7.4 11.1 74 1017.3(-0.4/3h) 30 0/8 -- --
00:00 22.3 22.3 17.6 SSE 7.4 7.4 13.0 75 1017.4(-0.3/3h) 30 0/8 0/6h
0/24h
--

1 Coordinated Universal Time. Actuellement il est 02:00 locale et 00:00 UTC.

2 Le vent souffle depuis la direction indiquée vers la direction oposée.

3 Les rafales max. sont disponible 40 min après l'heure du relevé.

4 Pour les stations d'altitude (plus de 600m) le géopotentiel du niveau le plus proche de la pression obligatoire est indiqué.

5 Les stations disposant d'un diffuseur peuvent indiquer "trace". Cela signifie que des précipitations ont touchés le sol mais que la quantité est inférieure à 0.1 mm.

Récapitulatif de la journée
Température [°C] Vent [km/h] Ensoleillement4 [h] Precipitations totale5 [mm] Pression [Hpa]
Min1 Max.2 Moy.3 Max. Min Max.
20.3 30.6 6.8 20.4 0 h 0 min 0 1015.3 1018.2

1 Température minimale relevée entre 18:00 UTC la veille et 18:00 UTC le jour donné.

2 Température maximale relevée entre 06:00 UTC le jour donné et 06:00 UTC le lendemain.

3 Vent moyen de la journée basé sur les relevés horaires.

4 Ensoleillement en heures relevé entre 06:00 UTC la veille et 06:00 UTC le jour donné.

5 Précipitations totales tombées entre 06:00 UTC la jour donné et 06:00 UTC le lendemain.

Graphiques horaires